Time;durP1;ratioP1;P1;durP2;ratioP2;P2;SDS_P1;SDS_P2;PMS_P1;PMS_P2;Temp;Humidity;BMP_temperature;BMP_pressure;BME280_temperature;BME280_humidity;BME280_pressure;Samples;Min_cycle;Max_cycle;Signal;HPM_P1;HPM_P2
2022/06/11 00:00:58;;;;;;;2.78;1.90;;;20.80;99.90;;;;;;5033395;28;20032;-89
2022/06/11 00:03:24;;;;;;;1.83;1.73;;;20.80;99.90;;;;;;5066537;28;20212;-89
2022/06/11 00:05:50;;;;;;;2.25;1.80;;;20.70;99.90;;;;;;5081299;28;20021;-88
2022/06/11 00:08:17;;;;;;;2.05;1.60;;;20.70;99.90;;;;;;5082908;28;20020;-88
2022/06/11 00:10:43;;;;;;;2.10;1.38;;;20.70;99.90;;;;;;5078998;28;20025;-87
2022/06/11 00:13:09;;;;;;;2.08;1.88;;;20.70;99.90;;;;;;5090156;28;20041;-87
2022/06/11 00:15:34;;;;;;;1.70;1.60;;;20.70;99.90;;;;;;5078369;28;20028;-87
2022/06/11 00:18:00;;;;;;;3.33;1.98;;;20.70;99.90;;;;;;5078922;28;20483;-88
2022/06/11 00:20:27;;;;;;;1.73;1.63;;;20.80;99.90;;;;;;5076777;28;20036;-88
2022/06/11 00:22:53;;;;;;;3.65;1.60;;;20.80;99.90;;;;;;5080321;28;20020;-88
2022/06/11 00:25:20;;;;;;;1.98;1.70;;;20.80;99.90;;;;;;5082175;28;20153;-90
2022/06/11 00:27:47;;;;;;;1.85;1.73;;;20.80;99.90;;;;;;5079701;28;20025;-87
2022/06/11 00:30:14;;;;;;;2.95;1.83;;;20.80;99.90;;;;;;5081847;28;20111;-89
2022/06/11 00:32:39;;;;;;;6.88;1.60;;;20.80;99.90;;;;;;5080274;28;20027;-88
2022/06/11 00:35:07;;;;;;;2.00;1.80;;;20.70;99.90;;;;;;5077314;28;20510;-89
2022/06/11 00:37:33;;;;;;;1.95;1.60;;;20.80;99.90;;;;;;5080023;28;20017;-87
2022/06/11 00:39:59;;;;;;;1.80;1.63;;;20.70;99.90;;;;;;5079669;28;20070;-88
2022/06/11 00:42:30;;;;;;;1.80;1.70;;;20.70;99.90;;;;;;5087123;28;20043;-87
2022/06/11 00:45:20;;;;;;;1.70;1.60;;;20.70;99.90;;;;;;5079807;28;20022;-88
2022/06/11 00:47:53;;;;;;;1.50;1.40;;;20.60;99.90;;;;;;5079791;28;20024;-89
2022/06/11 00:50:48;;;;;;;2.70;1.80;;;20.60;99.90;;;;;;5077746;28;20024;-88
2022/06/11 00:53:35;;;;;;;1.80;1.70;;;20.60;99.90;;;;;;5076125;28;20581;-88
2022/06/11 00:56:03;;;;;;;1.90;1.80;;;20.50;99.90;;;;;;5084046;28;20039;-89
2022/06/11 00:58:36;;;;;;;2.83;1.80;;;20.40;99.90;;;;;;5081382;28;20013;-87
2022/06/11 01:01:02;;;;;;;4.63;1.70;;;20.30;99.90;;;;;;5082952;28;20047;-89
2022/06/11 01:03:39;;;;;;;2.25;1.80;;;20.30;99.90;;;;;;5080439;28;20048;-88
2022/06/11 01:06:15;;;;;;;2.92;1.77;;;20.30;99.90;;;;;;5087710;28;20506;-87
2022/06/11 01:08:55;;;;;;;3.78;2.40;;;20.30;99.90;;;;;;5081786;28;20024;-88
2022/06/11 01:11:46;;;;;;;4.97;1.80;;;20.30;99.90;;;;;;5082724;28;20027;-86
2022/06/11 01:14:31;;;;;;;8.00;1.80;;;20.30;99.90;;;;;;5073819;28;20047;-88
2022/06/11 01:17:03;;;;;;;1.63;1.50;;;20.30;99.90;;;;;;5084550;28;20514;-89
2022/06/11 01:19:31;;;;;;;3.00;1.70;;;20.20;99.90;;;;;;5080416;28;20109;-88
2022/06/11 01:22:26;;;;;;;2.70;1.33;;;20.20;99.90;;;;;;5083479;28;20161;-88
2022/06/11 01:25:03;;;;;;;2.33;2.10;;;20.10;99.90;;;;;;5083606;28;20016;-88
2022/06/11 01:27:53;;;;;;;3.45;1.77;;;20.00;99.90;;;;;;5080473;28;20025;-88
2022/06/11 01:30:24;;;;;;;1.83;1.40;;;20.00;99.90;;;;;;5082779;28;20030;-88
2022/06/11 01:33:03;;;;;;;2.45;1.73;;;20.00;99.90;;;;;;5083209;28;20033;-89
2022/06/11 01:35:37;;;;;;;1.83;1.73;;;20.00;99.90;;;;;;5082685;28;20036;-88
2022/06/11 01:38:31;;;;;;;6.88;1.63;;;20.00;99.90;;;;;;5085719;28;20116;-88
2022/06/11 01:41:17;;;;;;;3.55;1.85;;;20.10;99.90;;;;;;5096361;28;20524;-89
2022/06/11 01:43:46;;;;;;;1.88;1.70;;;20.20;99.90;;;;;;5076637;28;20036;-88
2022/06/11 01:46:22;;;;;;;1.90;1.70;;;20.10;99.90;;;;;;5082407;28;20020;-88
2022/06/11 01:49:20;;;;;;;2.30;1.70;;;20.20;99.90;;;;;;5081285;28;20020;-88
2022/06/11 01:52:23;;;;;;;2.88;1.58;;;20.20;99.90;;;;;;5083576;28;20119;-88
2022/06/11 01:54:49;;;;;;;2.17;1.70;;;20.20;99.90;;;;;;5080436;28;20149;-87
2022/06/11 01:57:36;;;;;;;4.30;1.65;;;20.30;99.90;;;;;;5083056;28;20111;-88
2022/06/11 02:00:17;;;;;;;2.85;1.80;;;20.30;99.90;;;;;;5082578;28;20486;-88
2022/06/11 02:03:01;;;;;;;4.10;2.08;;;20.40;99.90;;;;;;5082911;28;20360;-88
2022/06/11 02:05:58;;;;;;;7.15;2.30;;;20.40;99.90;;;;;;5077696;28;20021;-87
2022/06/11 02:08:44;;;;;;;4.88;1.90;;;20.50;99.90;;;;;;5045134;28;20032;-88
2022/06/11 02:11:21;;;;;;;4.50;1.58;;;20.50;99.90;;;;;;5084943;28;20016;-87
2022/06/11 02:14:01;;;;;;;2.42;1.45;;;20.60;99.90;;;;;;5085684;28;20044;-88
2022/06/11 02:17:04;;;;;;;1.67;1.58;;;20.70;99.90;;;;;;5086383;28;20498;-88
2022/06/11 02:20:03;;;;;;;1.52;1.38;;;20.70;99.90;;;;;;5042298;28;20116;-89
2022/06/11 02:22:39;;;;;;;2.33;1.65;;;20.60;99.90;;;;;;5074845;28;20116;-89
2022/06/11 02:25:11;;;;;;;2.28;1.55;;;20.70;99.90;;;;;;5080351;28;20036;-89
2022/06/11 02:27:40;;;;;;;5.05;1.90;;;20.80;99.90;;;;;;5080943;28;20025;-88
2022/06/11 02:30:10;;;;;;;2.35;1.73;;;20.70;99.90;;;;;;5082159;28;20028;-88
2022/06/11 02:32:36;;;;;;;1.70;1.60;;;20.70;99.90;;;;;;5082576;28;20517;-88
2022/06/11 02:35:09;;;;;;;1.63;1.50;;;20.60;99.90;;;;;;5083720;28;20039;-87
2022/06/11 02:37:42;;;;;;;2.45;1.70;;;20.50;99.90;;;;;;5084704;28;20016;-88
2022/06/11 02:40:23;;;;;;;4.88;1.67;;;20.50;99.90;;;;;;5081629;28;20029;-88
2022/06/11 02:42:50;;;;;;;1.90;1.70;;;20.50;99.90;;;;;;5089357;28;20379;-88
2022/06/11 02:45:16;;;;;;;2.78;1.77;;;20.40;99.90;;;;;;5080053;28;20024;-88
2022/06/11 02:47:45;;;;;;;3.00;1.40;;;20.40;99.90;;;;;;5082222;28;20355;-88
2022/06/11 02:50:27;;;;;;;2.42;1.80;;;20.30;99.90;;;;;;5077050;28;20055;-89
2022/06/11 02:52:54;;;;;;;6.63;1.85;;;20.20;99.90;;;;;;5074596;28;20028;-88
2022/06/11 02:55:21;;;;;;;4.82;2.47;;;20.10;99.90;;;;;;5079324;28;20051;-88
2022/06/11 02:57:47;;;;;;;2.65;1.88;;;20.10;99.90;;;;;;5082017;28;20485;-89
2022/06/11 03:00:24;;;;;;;2.42;1.40;;;20.10;99.90;;;;;;5079804;28;20070;-88
2022/06/11 03:02:50;;;;;;;1.75;1.50;;;20.10;99.90;;;;;;5081933;28;20025;-87
2022/06/11 03:05:22;;;;;;;8.43;1.60;;;20.10;99.90;;;;;;5079617;28;20184;-88
2022/06/11 03:07:48;;;;;;;3.47;1.65;;;20.00;99.90;;;;;;5082389;28;20052;-87
2022/06/11 03:10:17;;;;;;;2.45;1.70;;;20.10;99.90;;;;;;5078142;28;20030;-87
2022/06/11 03:12:43;;;;;;;4.20;1.40;;;20.20;99.90;;;;;;5085285;28;20431;-88
2022/06/11 03:15:10;;;;;;;2.53;1.65;;;20.30;99.90;;;;;;5081672;28;20111;-89
2022/06/11 03:17:36;;;;;;;1.88;1.50;;;20.40;99.90;;;;;;5083117;28;20020;-88
2022/06/11 03:20:03;;;;;;;4.10;1.90;;;20.40;99.90;;;;;;5080460;28;20029;-88
2022/06/11 03:22:29;;;;;;;3.67;1.85;;;20.30;99.90;;;;;;5081208;28;20100;-87
2022/06/11 03:24:56;;;;;;;3.03;1.75;;;20.40;99.90;;;;;;5082353;28;20127;-89
2022/06/11 03:27:23;;;;;;;4.15;1.60;;;20.30;99.90;;;;;;5080905;28;20025;-89
2022/06/11 03:29:49;;;;;;;3.08;1.77;;;20.40;99.90;;;;;;5077033;28;20025;-89
2022/06/11 03:32:14;;;;;;;1.83;1.40;;;20.30;99.90;;;;;;5082718;28;20016;-89
2022/06/11 03:34:40;;;;;;;1.80;1.52;;;20.20;99.90;;;;;;5082196;28;20475;-89
2022/06/11 03:37:07;;;;;;;4.18;1.58;;;20.20;99.90;;;;;;5081310;28;20036;-88
2022/06/11 03:39:33;;;;;;;2.03;1.73;;;20.10;99.90;;;;;;5078331;28;20027;-88
2022/06/11 03:41:58;;;;;;;3.50;1.50;;;20.00;99.90;;;;;;5087129;28;20258;-89
2022/06/11 03:44:24;;;;;;;1.75;1.60;;;19.90;99.90;;;;;;5085568;28;20024;-88
2022/06/11 03:46:51;;;;;;;3.08;1.80;;;19.90;99.90;;;;;;5080277;28;20039;-88
2022/06/11 03:49:17;;;;;;;3.53;2.00;;;19.90;99.90;;;;;;5084811;28;20733;-88
2022/06/11 03:51:45;;;;;;;2.78;1.58;;;20.00;99.90;;;;;;5079005;28;20028;-87
2022/06/11 03:54:12;;;;;;;7.50;1.75;;;20.00;99.90;;;;;;5083965;28;20119;-87
2022/06/11 03:56:39;;;;;;;1.70;1.60;;;20.10;99.90;;;;;;5074320;28;20077;-88
2022/06/11 03:59:06;;;;;;;1.88;1.63;;;20.10;99.90;;;;;;5084874;28;20420;-87
2022/06/11 04:01:32;;;;;;;2.50;1.88;;;20.20;99.90;;;;;;5081963;28;20028;-92
2022/06/11 04:04:01;;;;;;;3.13;1.88;;;20.20;99.90;;;;;;5075597;28;20099;-88
2022/06/11 04:06:51;;;;;;;1.98;1.77;;;20.20;99.90;;;;;;5084063;28;20024;-85
2022/06/11 04:09:26;;;;;;;3.00;2.05;;;20.20;99.90;;;;;;5068783;28;20486;-87
2022/06/11 04:11:52;;;;;;;2.50;1.60;;;20.20;99.90;;;;;;5067947;28;20020;-86
2022/06/11 04:14:18;;;;;;;2.42;1.67;;;20.20;99.90;;;;;;5067622;28;20028;-86
2022/06/11 04:16:58;;;;;;;5.63;2.00;;;20.10;99.90;;;;;;5074145;28;20033;-87
2022/06/11 04:19:36;;;;;;;2.13;1.80;;;20.00;99.90;;;;;;5081762;28;20048;-84
2022/06/11 04:22:03;;;;;;;3.17;1.90;;;20.10;99.90;;;;;;5081097;28;20115;-83
2022/06/11 04:24:29;;;;;;;2.53;2.00;;;20.10;99.90;;;;;;5071736;28;20024;-85
2022/06/11 04:26:57;;;;;;;4.95;1.70;;;20.00;99.90;;;;;;5081439;28;20021;-92
2022/06/11 04:29:27;;;;;;;3.72;1.92;;;20.10;99.90;;;;;;5076796;28;20585;-84
2022/06/11 04:31:55;;;;;;;3.38;1.30;;;20.20;99.90;;;;;;5074320;28;20027;-86
2022/06/11 04:34:23;;;;;;;2.50;1.70;;;20.20;99.90;;;;;;5083282;28;20024;-87
2022/06/11 04:36:49;;;;;;;1.80;1.70;;;20.30;99.90;;;;;;5081501;28;20052;-84
2022/06/11 04:39:17;;;;;;;2.58;1.58;;;20.30;99.90;;;;;;5076560;28;20121;-84
2022/06/11 04:41:44;;;;;;;2.78;1.58;;;20.30;99.90;;;;;;5078868;28;20051;-84
2022/06/11 04:44:10;;;;;;;3.13;1.75;;;20.30;99.90;;;;;;5078188;28;20024;-84
2022/06/11 04:46:37;;;;;;;1.85;1.42;;;20.30;99.90;;;;;;5083173;28;20048;-83
2022/06/11 04:49:04;;;;;;;8.25;1.80;;;20.30;99.90;;;;;;5076400;28;20031;-85
2022/06/11 04:51:29;;;;;;;4.43;1.88;;;20.30;99.90;;;;;;5077379;28;20681;-85
2022/06/11 04:53:56;;;;;;;1.95;1.75;;;20.30;99.90;;;;;;5085684;28;20047;-86
2022/06/11 04:56:25;;;;;;;2.55;1.70;;;20.30;99.90;;;;;;5077561;28;20535;-84
2022/06/11 04:58:51;;;;;;;1.83;1.60;;;20.40;99.90;;;;;;5082288;28;20020;-85
2022/06/11 05:01:17;;;;;;;2.22;1.65;;;20.60;99.90;;;;;;5080673;28;20612;-84
2022/06/11 05:03:43;;;;;;;1.60;1.50;;;20.70;99.90;;;;;;5073366;28;20040;-85
2022/06/11 05:06:10;;;;;;;5.70;1.90;;;20.80;99.90;;;;;;5081378;28;20063;-85
2022/06/11 05:08:36;;;;;;;2.15;1.80;;;20.90;99.90;;;;;;5084991;28;20070;-86
2022/06/11 05:11:04;;;;;;;1.80;1.50;;;21.00;99.90;;;;;;5078477;28;20028;-85
2022/06/11 05:13:30;;;;;;;4.75;2.00;;;21.00;99.90;;;;;;5089157;28;20040;-86
2022/06/11 05:15:57;;;;;;;2.95;1.88;;;21.10;99.90;;;;;;5074494;28;20043;-86
2022/06/11 05:18:23;;;;;;;3.05;1.80;;;21.20;99.90;;;;;;5082659;28;20356;-85
2022/06/11 05:20:49;;;;;;;1.70;1.60;;;21.20;99.90;;;;;;5080320;28;20021;-87
2022/06/11 05:23:15;;;;;;;1.77;1.58;;;21.30;99.90;;;;;;5082101;28;20383;-86
2022/06/11 05:25:42;;;;;;;1.70;1.60;;;21.40;99.90;;;;;;5073114;28;20028;-86
2022/06/11 05:28:14;;;;;;;4.68;1.70;;;21.40;99.90;;;;;;5078463;28;20458;-86
2022/06/11 05:30:41;;;;;;;1.80;1.60;;;21.50;99.90;;;;;;5077369;28;20518;-87
2022/06/11 05:33:08;;;;;;;1.92;1.83;;;21.60;99.90;;;;;;5080538;28;20032;-84
2022/06/11 05:35:34;;;;;;;6.50;1.70;;;21.70;99.90;;;;;;5076995;28;20036;-86
2022/06/11 05:38:03;;;;;;;3.78;1.73;;;21.90;99.90;;;;;;5079113;28;20143;-86
2022/06/11 05:40:33;;;;;;;4.20;1.65;;;22.00;99.90;;;;;;5076907;28;20024;-86
2022/06/11 05:42:59;;;;;;;5.75;1.50;;;22.10;99.70;;;;;;5092128;28;20478;-88
2022/06/11 05:45:56;;;;;;;5.38;1.42;;;22.20;99.70;;;;;;5074472;28;20051;-86
2022/06/11 05:48:26;;;;;;;2.60;1.60;;;22.30;98.80;;;;;;5068851;28;20483;-86
2022/06/11 05:50:55;;;;;;;2.70;1.55;;;22.50;99.30;;;;;;5082850;28;20039;-87
2022/06/11 05:53:23;;;;;;;1.77;1.55;;;22.50;98.80;;;;;;5084323;28;20017;-87
2022/06/11 05:55:50;;;;;;;1.95;1.50;;;22.60;98.20;;;;;;5080425;28;20038;-87
2022/06/11 05:58:21;;;;;;;1.83;1.60;;;22.70;98.80;;;;;;5080243;28;20012;-86
2022/06/11 06:00:48;;;;;;;1.33;1.23;;;22.70;98.90;;;;;;5083047;28;20040;-86
2022/06/11 06:03:14;;;;;;;4.65;1.50;;;22.80;98.30;;;;;;5080598;28;20023;-86
2022/06/11 06:05:40;;;;;;;2.22;1.40;;;22.80;97.90;;;;;;5081450;28;20025;-84
2022/06/11 06:08:07;;;;;;;3.17;1.70;;;22.90;98.10;;;;;;5081847;28;20016;-85
2022/06/11 06:10:33;;;;;;;2.38;1.63;;;23.00;97.90;;;;;;5079972;28;20081;-86
2022/06/11 06:12:58;;;;;;;3.40;1.52;;;23.00;98.00;;;;;;5091308;28;20040;-85
2022/06/11 06:15:27;;;;;;;4.35;1.38;;;23.00;98.30;;;;;;5084121;28;20036;-86
2022/06/11 06:17:54;;;;;;;3.70;1.40;;;23.10;97.60;;;;;;5084057;28;20016;-85
2022/06/11 06:20:22;;;;;;;2.08;1.48;;;23.10;98.50;;;;;;5083319;28;20024;-86
2022/06/11 06:22:48;;;;;;;1.52;1.33;;;23.20;97.70;;;;;;5084221;28;20051;-85
2022/06/11 06:25:18;;;;;;;3.95;1.50;;;23.30;96.80;;;;;;5080523;28;20021;-86
2022/06/11 06:27:44;;;;;;;2.85;1.20;;;23.30;97.10;;;;;;5081840;28;20025;-85
2022/06/11 06:30:10;;;;;;;2.88;1.38;;;23.40;96.70;;;;;;5079408;28;20016;-85
2022/06/11 06:32:36;;;;;;;1.40;1.30;;;23.50;96.90;;;;;;5080575;28;20115;-85
2022/06/11 06:35:02;;;;;;;3.95;1.40;;;23.50;97.30;;;;;;5080096;28;20111;-85
2022/06/11 06:37:27;;;;;;;2.90;1.52;;;23.60;96.20;;;;;;5082114;28;20491;-85
2022/06/11 06:39:53;;;;;;;3.38;1.33;;;23.70;97.10;;;;;;5079928;28;20040;-87
2022/06/11 06:42:19;;;;;;;1.77;1.45;;;23.70;96.80;;;;;;5088836;28;20612;-85
2022/06/11 06:44:46;;;;;;;1.65;1.48;;;23.80;95.80;;;;;;5082633;28;20027;-86
2022/06/11 06:47:11;;;;;;;1.45;1.35;;;23.90;95.50;;;;;;5080679;28;20045;-85
2022/06/11 06:49:37;;;;;;;4.65;1.80;;;24.00;96.70;;;;;;5078946;28;20024;-85
2022/06/11 06:52:03;;;;;;;4.05;1.48;;;24.00;96.40;;;;;;5081181;28;20483;-84
2022/06/11 06:54:29;;;;;;;3.38;1.67;;;24.00;94.50;;;;;;5084030;28;20024;-86
2022/06/11 06:56:55;;;;;;;3.05;1.70;;;23.90;95.00;;;;;;5083214;28;20387;-86
2022/06/11 06:59:20;;;;;;;3.88;1.70;;;23.80;96.10;;;;;;5078166;28;20036;-86
2022/06/11 07:01:47;;;;;;;1.52;1.42;;;23.80;95.40;;;;;;5082878;28;20107;-86
2022/06/11 07:04:13;;;;;;;1.85;1.40;;;23.80;95.40;;;;;;5076987;28;20130;-86
2022/06/11 07:06:40;;;;;;;1.73;1.48;;;23.90;95.90;;;;;;5078789;28;20584;-87
2022/06/11 07:09:06;;;;;;;2.88;1.70;;;23.90;94.80;;;;;;5086540;28;20097;-86
2022/06/11 07:11:32;;;;;;;3.40;1.70;;;24.00;95.30;;;;;;5085092;28;20035;-87
2022/06/11 07:13:58;;;;;;;4.32;1.63;;;24.00;95.40;;;;;;5086322;28;20044;-87
2022/06/11 07:16:32;;;;;;;2.88;1.92;;;24.00;94.50;;;;;;5085413;28;20173;-86
2022/06/11 07:19:02;;;;;;;1.77;1.60;;;24.00;94.20;;;;;;5067737;28;20402;-86
2022/06/11 07:21:33;;;;;;;3.50;1.67;;;24.00;94.50;;;;;;5078680;28;20482;-87
2022/06/11 07:24:04;;;;;;;1.90;1.35;;;24.10;95.00;;;;;;5068338;28;20020;-87
2022/06/11 07:26:34;;;;;;;2.17;1.85;;;24.00;94.40;;;;;;5077163;28;20120;-86
2022/06/11 07:29:14;;;;;;;4.03;1.52;;;23.90;94.00;;;;;;5068538;28;20016;-87
2022/06/11 07:31:42;;;;;;;1.58;1.30;;;23.90;95.80;;;;;;5082994;28;20034;-86
2022/06/11 07:34:08;;;;;;;4.97;1.70;;;23.90;95.30;;;;;;5077644;28;20024;-84
2022/06/11 07:36:34;;;;;;;1.30;1.20;;;24.10;95.60;;;;;;5080763;28;20043;-85
2022/06/11 07:39:00;;;;;;;1.55;1.42;;;24.20;95.10;;;;;;5077044;28;20383;-86
2022/06/11 07:41:26;;;;;;;3.17;1.80;;;24.30;94.10;;;;;;5081307;28;20031;-86
2022/06/11 07:43:52;;;;;;;5.03;1.58;;;24.50;94.80;;;;;;5087986;28;20059;-86
2022/06/11 07:46:18;;;;;;;5.95;1.83;;;24.60;94.00;;;;;;5080549;28;20466;-86
2022/06/11 07:48:44;;;;;;;2.15;1.50;;;24.90;93.40;;;;;;5078513;28;20039;-87
2022/06/11 07:51:10;;;;;;;2.78;1.42;;;25.00;92.90;;;;;;5079538;28;20062;-88
2022/06/11 07:53:36;;;;;;;1.98;1.42;;;25.20;95.50;;;;;;5078069;28;20055;-86
2022/06/11 07:56:02;;;;;;;1.65;1.48;;;25.30;94.10;;;;;;5080176;28;20114;-86
2022/06/11 07:58:33;;;;;;;2.53;1.70;;;25.50;92.80;;;;;;5082781;28;20017;-87
2022/06/11 08:00:59;;;;;;;2.78;1.48;;;25.50;93.40;;;;;;5079552;28;20020;-87
2022/06/11 08:03:27;;;;;;;1.50;1.35;;;25.60;93.70;;;;;;5076909;28;20597;-86
2022/06/11 08:05:54;;;;;;;4.50;1.70;;;25.70;93.50;;;;;;5077888;28;20103;-87
2022/06/11 08:08:21;;;;;;;2.30;1.50;;;25.80;93.50;;;;;;5079725;28;20070;-88
2022/06/11 08:10:47;;;;;;;2.20;1.23;;;25.90;93.50;;;;;;5079067;28;20490;-86
2022/06/11 08:13:13;;;;;;;2.08;1.30;;;25.90;92.90;;;;;;5089579;28;20048;-85
2022/06/11 08:15:41;;;;;;;2.30;1.73;;;26.00;93.10;;;;;;5079190;28;20136;-88
2022/06/11 08:18:07;;;;;;;3.03;1.50;;;26.10;93.30;;;;;;5079237;28;20462;-87
2022/06/11 08:20:36;;;;;;;3.70;1.40;;;26.20;92.70;;;;;;5078015;28;20028;-86
2022/06/11 08:23:02;;;;;;;1.85;1.58;;;26.10;92.40;;;;;;5079365;28;20020;-86
2022/06/11 08:25:28;;;;;;;5.53;1.73;;;26.20;92.60;;;;;;5079476;28;20559;-86
2022/06/11 08:27:54;;;;;;;10.88;2.55;;;26.30;92.10;;;;;;5079017;28;20028;-87
2022/06/11 08:30:23;;;;;;;3.92;1.58;;;26.40;92.50;;;;;;5078296;28;20048;-87
2022/06/11 08:32:49;;;;;;;3.95;1.63;;;26.70;92.20;;;;;;5079840;28;20070;-87
2022/06/11 08:35:18;;;;;;;2.25;1.42;;;26.90;91.60;;;;;;5077952;28;20081;-87
2022/06/11 08:37:44;;;;;;;2.15;1.40;;;27.00;92.50;;;;;;5078708;28;20187;-88
2022/06/11 08:40:40;;;;;;;3.20;1.40;;;27.10;92.80;;;;;;5080543;28;20012;-89
2022/06/11 08:43:25;;;;;;;4.80;2.00;;;27.30;92.00;;;;;;5088054;28;20024;-87
2022/06/11 08:46:10;;;;;;;2.47;1.50;;;27.20;90.90;;;;;;5076531;28;20497;-87
2022/06/11 08:48:41;;;;;;;3.13;1.27;;;27.20;91.80;;;;;;5075965;28;20203;-87
2022/06/11 08:51:31;;;;;;;2.33;1.55;;;27.20;90.30;;;;;;5078501;28;20144;-86
2022/06/11 08:54:01;;;;;;;6.38;1.42;;;27.10;91.20;;;;;;5066664;28;20028;-89
2022/06/11 08:56:33;;;;;;;1.70;1.50;;;27.00;91.40;;;;;;5079446;28;20394;-87
2022/06/11 08:59:20;;;;;;;2.45;1.42;;;27.00;90.10;;;;;;5066538;28;20055;-88
2022/06/11 09:02:27;;;;;;;5.03;1.55;;;27.00;90.80;;;;;;5081299;28;20024;-87
2022/06/11 09:05:14;;;;;;;1.90;1.45;;;26.90;89.10;;;;;;4978897;28;20477;-86
2022/06/11 09:07:48;;;;;;;1.30;1.17;;;26.90;88.60;;;;;;5073018;28;20033;-87
2022/06/11 09:10:33;;;;;;;2.25;1.23;;;27.00;90.10;;;;;;5075426;28;20081;-87
2022/06/11 09:13:36;;;;;;;1.60;1.38;;;27.00;86.50;;;;;;5084825;28;20052;-88
2022/06/11 09:16:20;;;;;;;2.00;1.30;;;27.00;88.20;;;;;;5081020;28;20067;-87
2022/06/11 09:19:17;;;;;;;2.00;1.30;;;27.10;87.80;;;;;;5081695;28;20008;-85
2022/06/11 09:21:58;;;;;;;1.40;1.30;;;26.90;87.10;;;;;;5084577;28;20020;-87
2022/06/11 09:24:44;;;;;;;3.90;1.50;;;26.90;87.20;;;;;;5079628;28;20020;-87
2022/06/11 09:27:18;;;;;;;5.30;1.70;;;26.90;86.90;;;;;;5082725;28;20082;-87
2022/06/11 09:30:04;;;;;;;2.13;1.50;;;27.00;88.20;;;;;;5081129;28;20578;-88
2022/06/11 09:32:55;;;;;;;1.58;1.35;;;27.10;89.80;;;;;;5080106;28;20387;-88
2022/06/11 09:35:51;;;;;;;3.72;1.40;;;27.10;88.50;;;;;;5044072;28;20039;-87
2022/06/11 09:38:42;;;;;;;2.45;1.35;;;27.20;89.70;;;;;;5080410;28;20020;-87
2022/06/11 09:41:23;;;;;;;1.77;1.60;;;27.30;87.30;;;;;;5079107;28;20159;-86
2022/06/11 09:44:03;;;;;;;3.92;1.25;;;27.30;85.20;;;;;;5089408;28;20073;-85
2022/06/11 09:46:35;;;;;;;2.67;1.30;;;27.30;88.30;;;;;;5083156;28;20367;-85
2022/06/11 09:49:28;;;;;;;6.07;1.50;;;27.30;85.30;;;;;;5068196;28;20032;-85
2022/06/11 09:52:11;;;;;;;9.90;1.92;;;27.30;86.10;;;;;;5084208;28;20259;-86
2022/06/11 09:54:59;;;;;;;;;;;27.20;86.60;;;;;;5080512;28;20017;-86
2022/06/11 09:57:49;;;;;;;2.60;1.38;;;27.40;88.30;;;;;;5062201;28;20000;-86
2022/06/11 10:00:20;;;;;;;6.43;1.40;;;27.50;87.60;;;;;;5080200;28;20067;-86
2022/06/11 10:06:05;;;;;;;1.88;1.50;;;27.50;87.90;;;;;;5080981;28;20560;-88
2022/06/11 10:08:49;;;;;;;2.33;1.38;;;27.50;86.30;;;;;;5080416;28;20028;-88
2022/06/11 10:11:36;;;;;;;1.85;1.27;;;27.60;86.00;;;;;;5080059;28;20023;-87
2022/06/11 10:17:25;;;;;;;5.05;1.52;;;27.70;85.40;;;;;;5083659;28;20090;-88
2022/06/11 10:20:07;;;;;;;2.10;1.27;;;27.70;86.40;;;;;;5056726;28;20036;-87
2022/06/11 10:23:18;;;;;;;4.40;1.33;;;27.70;84.70;;;;;;5079908;28;20024;-89
2022/06/11 10:25:59;;;;;;;4.07;1.30;;;27.80;84.80;;;;;;5053950;28;20445;-88
2022/06/11 10:29:03;;;;;;;1.40;1.30;;;27.80;86.80;;;;;;5083940;28;20016;-87
2022/06/11 10:31:42;;;;;;;1.83;1.30;;;28.00;85.20;;;;;;5066383;28;20119;-88
2022/06/11 10:34:22;;;;;;;1.88;1.45;;;28.10;86.40;;;;;;5068342;28;20479;-88
2022/06/11 10:37:27;;;;;;;3.05;1.70;;;28.10;84.10;;;;;;5082682;28;20032;-89
2022/06/11 10:40:04;;;;;;;3.22;1.35;;;28.20;84.20;;;;;;5082349;28;20070;-89
2022/06/11 10:42:55;;;;;;;1.63;1.30;;;28.30;87.10;;;;;;5079821;28;20024;-90
2022/06/11 10:45:21;;;;;;;1.63;1.13;;;28.50;85.30;;;;;;5081290;28;20036;-88
2022/06/11 10:47:57;;;;;;;1.60;1.40;;;28.60;88.80;;;;;;5081664;28;20037;-88
2022/06/11 10:50:34;;;;;;;1.38;1.27;;;28.70;88.00;;;;;;5079981;28;20113;-89
2022/06/11 10:53:18;;;;;;;1.60;1.40;;;28.80;89.90;;;;;;5076004;28;20482;-89
2022/06/11 10:55:58;;;;;;;2.67;1.48;;;29.10;84.50;;;;;;5077853;28;20091;-89
2022/06/11 10:58:37;;;;;;;4.70;1.65;;;29.10;85.70;;;;;;5079828;28;20101;-88
2022/06/11 11:01:10;;;;;;;3.63;1.33;;;29.20;87.30;;;;;;5082083;28;20077;-89
2022/06/11 11:03:45;;;;;;;2.10;1.25;;;29.20;84.50;;;;;;5085536;28;20540;-90
2022/06/11 11:06:29;;;;;;;5.90;1.40;;;29.30;86.20;;;;;;5076865;28;20028;-89
2022/06/11 11:09:05;;;;;;;2.45;1.40;;;29.60;89.10;;;;;;5084803;28;20025;-89
2022/06/11 11:12:06;;;;;;;4.28;1.90;;;29.80;84.30;;;;;;5071455;28;20082;-90
2022/06/11 11:14:40;;;;;;;1.70;1.30;;;29.90;84.90;;;;;;5057951;28;20486;-87
2022/06/11 11:17:20;;;;;;;4.00;2.00;;;30.00;84.40;;;;;;5080408;28;20445;-89
2022/06/11 11:20:29;;;;;;;1.33;1.20;;;30.10;81.80;;;;;;5080853;28;20386;-89
2022/06/11 11:22:40;;;;;;;4.00;1.38;;;30.10;83.70;;;;;;5079189;28;20016;-90
2022/06/11 11:25:20;;;;;;;3.33;1.48;;;30.20;85.00;;;;;;5075725;28;20028;-91
2022/06/11 11:27:47;;;;;;;1.98;1.60;;;30.40;83.10;;;;;;5081518;28;20048;-89
2022/06/11 11:30:16;;;;;;;3.28;1.55;;;30.60;81.10;;;;;;5076922;28;20027;-89
2022/06/11 11:32:45;;;;;;;3.53;1.40;;;30.60;79.90;;;;;;5079767;28;20056;-89
2022/06/11 11:35:19;;;;;;;1.45;1.35;;;30.50;81.00;;;;;;5081268;28;20032;-90
2022/06/11 11:37:56;;;;;;;1.65;1.40;;;30.60;81.60;;;;;;5080759;28;20162;-89
2022/06/11 11:40:36;;;;;;;1.17;1.17;;;30.70;82.00;;;;;;5083535;28;20498;-90
2022/06/11 11:43:10;;;;;;;3.42;1.60;;;30.80;84.30;;;;;;5088288;28;20028;-89
2022/06/11 11:45:47;;;;;;;4.05;1.60;;;31.10;83.70;;;;;;5077847;28;20070;-88
2022/06/11 11:48:26;;;;;;;5.20;2.00;;;30.90;85.90;;;;;;5084292;28;20493;-89
2022/06/11 11:50:58;;;;;;;2.35;1.95;;;29.60;87.40;;;;;;5069133;28;20025;-89
2022/06/11 11:53:31;;;;;;;3.78;1.42;;;29.20;93.00;;;;;;5083024;28;20032;-89
2022/06/11 11:56:04;;;;;;;5.45;1.30;;;29.60;88.60;;;;;;5080399;28;20063;-89
2022/06/11 11:58:35;;;;;;;1.90;1.50;;;30.10;86.40;;;;;;5085343;28;20061;-90
2022/06/11 12:01:13;;;;;;;2.20;1.38;;;30.90;87.00;;;;;;5084497;28;20530;-90
2022/06/11 12:03:43;;;;;;;2.35;1.67;;;32.10;82.80;;;;;;5084208;28;20467;-91
2022/06/11 12:06:25;;;;;;;2.28;1.27;;;33.90;84.70;;;;;;5082468;28;20093;-88
2022/06/11 12:08:53;;;;;;;1.70;1.30;;;34.50;82.20;;;;;;5086282;28;20395;-87
2022/06/11 12:11:28;;;;;;;1.60;1.50;;;34.20;80.70;;;;;;5073156;28;20021;-88
2022/06/11 12:14:00;;;;;;;2.88;1.48;;;34.90;82.60;;;;;;5074749;28;20048;-89
2022/06/11 12:16:39;;;;;;;3.55;2.00;;;34.90;83.10;;;;;;5084554;28;20036;-89
2022/06/11 12:19:19;;;;;;;3.17;2.20;;;33.60;86.00;;;;;;5068243;28;20039;-89
2022/06/11 12:21:54;;;;;;;5.85;3.00;;;33.70;86.10;;;;;;5081354;28;20052;-88
2022/06/11 12:24:49;;;;;;;3.17;2.38;;;33.80;85.60;;;;;;5076797;28;20107;-87
2022/06/11 12:27:27;;;;;;;3.92;2.20;;;32.70;85.30;;;;;;5051492;28;20494;-89
2022/06/11 12:30:01;;;;;;;5.45;2.15;;;33.50;80.80;;;;;;5079874;28;20513;-89
2022/06/11 12:32:29;;;;;;;3.08;2.78;;;33.60;80.10;;;;;;5082819;28;20012;-86
2022/06/11 12:34:58;;;;;;;3.58;2.20;;;33.80;81.70;;;;;;5081208;28;20024;-88
2022/06/11 12:37:44;;;;;;;10.07;3.75;;;33.40;81.00;;;;;;5079684;28;20433;-86
2022/06/11 12:40:16;;;;;;;5.70;2.50;;;33.10;81.60;;;;;;5082751;28;20052;-90
2022/06/11 12:43:16;;;;;;;2.73;1.97;;;34.10;80.20;;;;;;5088722;28;20502;-87
2022/06/11 12:45:57;;;;;;;2.47;2.22;;;34.80;80.40;;;;;;5077156;28;20637;-88
2022/06/11 12:48:47;;;;;;;5.68;2.45;;;36.10;79.40;;;;;;5083179;28;20025;-88
2022/06/11 12:51:34;;;;;;;2.35;2.22;;;37.50;78.10;;;;;;5083271;28;20699;-89
2022/06/11 12:54:03;;;;;;;2.42;2.00;;;35.90;75.00;;;;;;5065463;28;20024;-88
2022/06/11 12:57:01;;;;;;;3.30;2.40;;;33.00;78.80;;;;;;5072276;28;20043;-88
2022/06/11 12:59:36;;;;;;;5.32;2.28;;;34.30;80.50;;;;;;5025916;28;20051;-91
2022/06/11 13:02:10;;;;;;;3.03;1.80;;;35.00;80.60;;;;;;5076184;28;20028;-87
2022/06/11 13:04:45;;;;;;;3.65;1.92;;;35.10;78.80;;;;;;5084004;28;20024;-88
2022/06/11 13:07:38;;;;;;;4.18;1.55;;;31.40;83.70;;;;;;5079278;28;20028;-87
2022/06/11 13:10:39;;;;;;;6.32;1.70;;;30.00;86.90;;;;;;5074565;28;20048;-87
2022/06/11 13:13:28;;;;;;;11.02;2.08;;;32.20;84.50;;;;;;5087312;28;20044;-88
2022/06/11 13:16:18;;;;;;;1.98;1.60;;;31.90;83.60;;;;;;5069786;28;20036;-88
2022/06/11 13:19:05;;;;;;;4.30;1.80;;;32.60;81.10;;;;;;5075781;28;20021;-87
2022/06/11 13:21:34;;;;;;;4.25;2.00;;;30.10;85.90;;;;;;5074508;28;20032;-86
2022/06/11 13:24:21;;;;;;;2.85;1.73;;;29.00;89.60;;;;;;5084713;28;20374;-89
2022/06/11 13:27:23;;;;;;;2.92;1.67;;;28.40;90.20;;;;;;5081519;28;20070;-88
2022/06/11 13:29:53;;;;;;;4.07;1.50;;;28.20;90.50;;;;;;5075955;28;20033;-87